Terminal Aerodrome Forecast
Issued by NWS

Home | Current Version | Previous Version | Text Only | Print | Product List | Glossary On
Versions: 1 2 3 4 5 6 7 8 9 10 11 12 13 14 15 16 17 18 19
976
FTUS46 KHNX 090909 AAA
TAFVIS
TAF AMD
KVIS 090909Z 0909/1006 00000KT 3SM BR SKC
     FM091100 00000KT 2SM BR SCT002
      TEMPO 0911/0915 1/2SM FG VV002
     FM091800 VRB03KT 3SM BR SKC
     FM092000 VRB03KT P6SM SKC=

USA.gov is the U.S. government's official web portal to all federal, state and local government web resources and services.